createdAt,value
2023-04-25T00:00:18.736Z,12.00
2023-04-25T00:02:45.500Z,12.00
2023-04-25T00:05:13.721Z,12.00
2023-04-25T00:07:40.577Z,12.00
2023-04-25T00:10:08.347Z,11.90
2023-04-25T00:12:34.982Z,11.90
2023-04-25T00:15:01.848Z,11.90
2023-04-25T00:17:29.313Z,11.90
2023-04-25T00:19:56.985Z,11.90
2023-04-25T00:22:23.655Z,11.90
2023-04-25T00:24:50.459Z,11.80
2023-04-25T00:27:17.237Z,11.80
2023-04-25T00:29:43.930Z,11.80
2023-04-25T00:32:10.987Z,11.80
2023-04-25T00:34:37.702Z,11.80
2023-04-25T00:37:04.493Z,11.70
2023-04-25T00:39:31.179Z,11.70
2023-04-25T00:41:58.783Z,11.70
2023-04-25T00:44:26.098Z,11.70
2023-04-25T00:46:53.597Z,11.70
2023-04-25T00:49:20.210Z,11.70
2023-04-25T00:51:47.133Z,11.70
2023-04-25T00:54:15.127Z,11.70
2023-04-25T00:56:42.659Z,11.60
2023-04-25T00:59:11.220Z,11.70
2023-04-25T01:01:38.829Z,11.60
2023-04-25T01:04:05.856Z,11.60
2023-04-25T01:06:33.038Z,11.60
2023-04-25T01:09:00.607Z,11.60
2023-04-25T01:11:27.451Z,11.60
2023-04-25T01:13:54.156Z,11.60
2023-04-25T01:16:21.414Z,11.50
2023-04-25T01:18:49.116Z,11.50
2023-04-25T01:21:15.916Z,11.50
2023-04-25T01:23:43.700Z,11.50
2023-04-25T01:26:11.759Z,11.50
2023-04-25T01:28:42.358Z,11.50
2023-04-25T01:31:09.911Z,11.40
2023-04-25T01:33:36.712Z,11.50
2023-04-25T01:36:03.740Z,11.40
2023-04-25T01:38:30.775Z,11.40
2023-04-25T01:40:57.739Z,11.40
2023-04-25T01:43:24.544Z,11.40
2023-04-25T01:45:52.633Z,11.40
2023-04-25T01:48:19.517Z,11.40
2023-04-25T01:50:47.617Z,11.30
2023-04-25T01:53:15.771Z,11.30
2023-04-25T01:55:42.477Z,11.30
2023-04-25T01:58:10.448Z,11.30
2023-04-25T02:00:41.809Z,11.30
2023-04-25T02:03:09.771Z,11.30
2023-04-25T02:05:41.357Z,11.30
2023-04-25T02:08:09.638Z,11.20
2023-04-25T02:10:36.685Z,11.20
2023-04-25T02:13:03.803Z,11.20
2023-04-25T02:15:30.716Z,11.20
2023-04-25T02:17:57.824Z,11.20
2023-04-25T02:20:26.026Z,11.20
2023-04-25T02:22:53.013Z,11.20
2023-04-25T02:25:22.101Z,11.20
2023-04-25T02:27:49.536Z,11.10
2023-04-25T02:30:16.489Z,11.10
2023-04-25T02:32:43.525Z,11.10
2023-04-25T02:35:11.011Z,11.10
2023-04-25T02:37:39.600Z,11.10
2023-04-25T02:40:07.768Z,11.10
2023-04-25T02:42:34.805Z,11.10
2023-04-25T02:45:01.644Z,11.10
2023-04-25T02:47:28.419Z,11.00
2023-04-25T02:49:55.334Z,11.00
2023-04-25T02:52:22.270Z,11.00
2023-04-25T02:54:48.971Z,11.00
2023-04-25T02:57:15.955Z,11.00
2023-04-25T02:59:42.761Z,11.00
2023-04-25T03:02:09.555Z,11.00
2023-04-25T03:04:36.419Z,11.00
2023-04-25T03:07:03.493Z,10.90
2023-04-25T03:09:30.155Z,10.90
2023-04-25T03:11:56.794Z,10.90
2023-04-25T03:14:23.470Z,10.90
2023-04-25T03:16:50.167Z,10.90
2023-04-25T03:19:19.902Z,10.90
2023-04-25T03:21:46.580Z,10.90
2023-04-25T03:24:13.508Z,10.80
2023-04-25T03:26:40.156Z,10.80
2023-04-25T03:29:06.844Z,10.80
2023-04-25T03:31:33.575Z,10.80
2023-04-25T03:34:00.267Z,10.80
2023-04-25T03:36:27.116Z,10.80
2023-04-25T03:38:53.774Z,10.80
2023-04-25T03:41:21.197Z,10.80
2023-04-25T03:43:48.073Z,10.70
2023-04-25T03:46:15.089Z,10.70
2023-04-25T03:48:42.322Z,10.70
2023-04-25T03:51:09.040Z,10.70
2023-04-25T03:53:35.723Z,10.70
2023-04-25T03:56:02.306Z,10.70
2023-04-25T03:58:28.922Z,10.70
2023-04-25T04:00:55.549Z,10.70
2023-04-25T04:03:22.702Z,10.70
2023-04-25T04:05:49.933Z,10.60
2023-04-25T04:08:16.639Z,10.60
2023-04-25T04:10:43.402Z,10.60
2023-04-25T04:13:10.074Z,10.60
2023-04-25T04:15:38.040Z,10.60
2023-04-25T04:18:05.215Z,10.60
2023-04-25T04:20:31.877Z,10.60
2023-04-25T04:22:58.734Z,10.60
2023-04-25T04:25:25.672Z,10.60
2023-04-25T04:27:55.943Z,10.50
2023-04-25T04:30:26.537Z,10.50
2023-04-25T04:32:53.458Z,10.50
2023-04-25T04:35:20.376Z,10.40
2023-04-25T04:37:47.732Z,10.30
2023-04-25T04:40:16.763Z,10.30
2023-04-25T04:42:44.385Z,10.40
2023-04-25T04:45:11.374Z,10.30
2023-04-25T04:47:38.752Z,10.30
2023-04-25T04:50:05.700Z,10.30
2023-04-25T04:52:32.342Z,10.30
2023-04-25T04:54:59.084Z,10.30
2023-04-25T04:57:26.056Z,10.30
2023-04-25T04:59:52.854Z,10.30
2023-04-25T05:02:19.489Z,10.30
2023-04-25T05:04:46.235Z,10.30
2023-04-25T05:07:13.014Z,10.30
2023-04-25T05:09:39.886Z,10.30
2023-04-25T05:12:06.833Z,10.30
2023-04-25T05:14:33.541Z,10.30
2023-04-25T05:17:00.646Z,10.30
2023-04-25T05:19:27.596Z,10.30
2023-04-25T05:21:54.499Z,10.30
2023-04-25T05:24:21.145Z,10.30
2023-04-25T05:26:47.807Z,10.30
2023-04-25T05:29:14.357Z,10.30
2023-04-25T05:31:41.134Z,10.30
2023-04-25T05:34:07.789Z,10.30
2023-04-25T05:36:34.613Z,10.30
2023-04-25T05:39:01.196Z,10.30
2023-04-25T05:41:27.943Z,10.30
2023-04-25T05:43:57.157Z,10.30
2023-04-25T05:46:24.743Z,10.30
2023-04-25T05:48:51.420Z,10.30
2023-04-25T05:51:19.685Z,10.20
2023-04-25T05:53:46.441Z,10.20
2023-04-25T05:56:13.176Z,10.20
2023-04-25T05:58:39.931Z,10.20
2023-04-25T06:01:06.668Z,10.20
2023-04-25T06:03:33.482Z,10.20
2023-04-25T06:06:00.266Z,10.20
2023-04-25T06:08:26.968Z,10.20
2023-04-25T06:10:53.715Z,10.20
2023-04-25T06:13:20.341Z,10.20
2023-04-25T06:15:47.108Z,10.20
2023-04-25T06:18:13.849Z,10.20
2023-04-25T06:20:40.831Z,10.20
2023-04-25T06:23:07.709Z,10.20
2023-04-25T06:25:34.751Z,10.20
2023-04-25T06:28:01.459Z,10.30
2023-04-25T06:30:28.305Z,10.30
2023-04-25T06:32:55.154Z,10.30
2023-04-25T06:35:22.388Z,10.30
2023-04-25T06:37:49.166Z,10.30
2023-04-25T06:40:16.144Z,10.30
2023-04-25T06:42:42.910Z,10.30
2023-04-25T06:45:09.992Z,10.30
2023-04-25T06:47:36.823Z,10.30
2023-04-25T06:50:03.825Z,10.40
2023-04-25T06:52:30.745Z,10.40
2023-04-25T06:54:57.433Z,10.40
2023-04-25T06:57:24.549Z,10.50
2023-04-25T06:59:51.202Z,10.50
2023-04-25T07:02:17.916Z,10.60
2023-04-25T07:04:44.687Z,10.60
2023-04-25T07:07:11.533Z,10.60
2023-04-25T07:09:38.309Z,10.70
2023-04-25T07:12:05.445Z,10.80
2023-04-25T07:14:32.192Z,10.80
2023-04-25T07:16:59.367Z,10.80
2023-04-25T07:19:27.950Z,10.90
2023-04-25T07:21:54.768Z,11.00
2023-04-25T07:24:21.407Z,11.10
2023-04-25T07:26:48.164Z,11.20
2023-04-25T07:29:14.827Z,11.30
2023-04-25T07:31:41.481Z,11.40
2023-04-25T07:34:08.556Z,11.50
2023-04-25T07:36:35.314Z,11.60
2023-04-25T07:39:02.058Z,11.60
2023-04-25T07:41:28.831Z,11.70
2023-04-25T07:43:55.460Z,11.90
2023-04-25T07:46:22.260Z,12.00
2023-04-25T07:48:49.343Z,12.00
2023-04-25T07:51:16.302Z,12.00
2023-04-25T07:53:43.296Z,12.00
2023-04-25T07:56:10.251Z,12.10
2023-04-25T07:58:37.246Z,12.00
2023-04-25T08:01:04.136Z,12.10
2023-04-25T08:03:31.137Z,12.00
2023-04-25T08:05:58.195Z,11.90
2023-04-25T08:08:25.154Z,12.00
2023-04-25T08:10:51.862Z,12.00
2023-04-25T08:13:18.553Z,12.10
2023-04-25T08:15:45.421Z,12.20
2023-04-25T08:18:12.233Z,12.30
2023-04-25T08:20:38.931Z,12.30
2023-04-25T08:23:05.718Z,12.30
2023-04-25T08:25:32.455Z,12.40
2023-04-25T08:28:00.673Z,12.40
2023-04-25T08:30:28.198Z,12.40
2023-04-25T08:32:55.131Z,12.50
2023-04-25T08:35:22.099Z,12.50
2023-04-25T08:37:50.256Z,12.50
2023-04-25T08:40:17.259Z,12.50
2023-04-25T08:42:44.070Z,12.60
2023-04-25T08:45:11.504Z,12.60
2023-04-25T08:47:39.682Z,12.60
2023-04-25T08:50:07.757Z,12.70
2023-04-25T08:52:48.042Z,12.70
2023-04-25T08:55:15.477Z,12.80
2023-04-25T08:57:46.501Z,12.90
2023-04-25T09:00:14.286Z,12.90
2023-04-25T09:02:43.276Z,13.10
2023-04-25T09:05:13.516Z,13.20
2023-04-25T09:07:40.199Z,13.30
2023-04-25T09:10:07.208Z,13.40
2023-04-25T09:12:33.870Z,13.50
2023-04-25T09:15:10.815Z,13.50
2023-04-25T09:17:41.649Z,13.60
2023-04-25T09:20:10.377Z,13.60
2023-04-25T09:22:38.550Z,13.70
2023-04-25T09:25:12.918Z,13.80
2023-04-25T09:27:53.290Z,13.80
2023-04-25T09:30:29.338Z,13.90
2023-04-25T09:32:59.366Z,14.00
2023-04-25T09:35:29.671Z,14.10
2023-04-25T09:37:56.827Z,14.20
2023-04-25T09:40:23.600Z,14.50
2023-04-25T09:42:50.357Z,14.40
2023-04-25T09:45:17.082Z,14.50
2023-04-25T09:47:45.130Z,14.50
2023-04-25T09:50:17.180Z,14.60
2023-04-25T09:52:44.528Z,14.70
2023-04-25T09:55:11.284Z,14.70
2023-04-25T09:57:41.394Z,14.90
2023-04-25T10:00:13.094Z,15.00
2023-04-25T10:02:40.372Z,15.10
2023-04-25T10:05:09.545Z,15.20
2023-04-25T10:07:39.212Z,15.30
2023-04-25T10:10:07.173Z,15.40
2023-04-25T10:12:35.331Z,15.60
2023-04-25T10:15:03.891Z,15.70
2023-04-25T10:17:31.240Z,15.70
2023-04-25T10:19:58.882Z,15.90
2023-04-25T10:22:38.329Z,16.00
2023-04-25T10:25:05.955Z,16.10
2023-04-25T10:27:33.320Z,16.30
2023-04-25T10:30:10.467Z,16.30
2023-04-25T10:32:37.201Z,16.30
2023-04-25T10:35:18.420Z,16.30
2023-04-25T10:38:05.868Z,16.40
2023-04-25T10:40:36.038Z,16.40
2023-04-25T10:43:40.952Z,16.40
2023-04-25T10:46:19.098Z,16.50
2023-04-25T10:48:59.914Z,16.50
2023-04-25T10:51:34.590Z,16.60
2023-04-25T10:54:09.909Z,16.50
2023-04-25T10:56:45.360Z,16.50
2023-04-25T10:59:14.011Z,16.40
2023-04-25T11:01:48.341Z,16.30
2023-04-25T11:04:32.087Z,16.40
2023-04-25T11:07:24.022Z,16.50
2023-04-25T11:09:51.121Z,16.40
2023-04-25T11:12:18.766Z,16.50
2023-04-25T11:14:45.628Z,16.40
2023-04-25T11:17:12.791Z,16.40
2023-04-25T11:19:39.651Z,16.50
2023-04-25T11:22:07.284Z,16.60
2023-04-25T11:24:35.996Z,16.70
2023-04-25T11:27:05.074Z,16.80
2023-04-25T11:29:33.236Z,16.90
2023-04-25T11:32:01.506Z,16.90
2023-04-25T11:34:31.774Z,16.90
2023-04-25T11:36:58.700Z,16.90
2023-04-25T11:39:26.271Z,17.00
2023-04-25T11:41:53.776Z,16.90
2023-04-25T11:44:21.174Z,16.90
2023-04-25T11:46:50.848Z,17.00
2023-04-25T11:49:19.471Z,17.00
2023-04-25T11:51:49.015Z,16.90
2023-04-25T11:54:16.787Z,16.90
2023-04-25T11:56:45.252Z,16.80
2023-04-25T11:59:13.141Z,16.90
2023-04-25T12:01:42.319Z,16.90
2023-04-25T12:04:27.507Z,16.80
2023-04-25T12:06:56.409Z,17.00
2023-04-25T12:09:32.052Z,17.00
2023-04-25T12:12:00.383Z,17.00
2023-04-25T12:14:29.953Z,17.00
2023-04-25T12:16:59.040Z,17.00
2023-04-25T12:19:27.083Z,17.10
2023-04-25T12:21:58.776Z,17.10
2023-04-25T12:24:28.348Z,17.10
2023-04-25T12:27:06.591Z,17.30
2023-04-25T12:29:47.862Z,17.30
2023-04-25T12:32:16.943Z,17.10
2023-04-25T12:34:43.856Z,17.20
2023-04-25T12:37:10.679Z,17.20
2023-04-25T12:39:37.598Z,17.40
2023-04-25T12:42:05.710Z,17.60
2023-04-25T12:44:35.231Z,17.50
2023-04-25T12:47:02.328Z,17.60
2023-04-25T12:49:29.271Z,17.50
2023-04-25T12:51:56.196Z,17.50
2023-04-25T12:54:22.972Z,17.50
2023-04-25T12:56:49.726Z,17.80
2023-04-25T12:59:16.500Z,17.90
2023-04-25T13:01:44.102Z,17.80
2023-04-25T13:04:11.002Z,18.00
2023-04-25T13:06:37.922Z,18.20
2023-04-25T13:09:04.728Z,18.10
2023-04-25T13:11:31.870Z,18.30
2023-04-25T13:13:58.765Z,18.30
2023-04-25T13:16:25.634Z,18.20
2023-04-25T13:18:52.348Z,18.20
2023-04-25T13:21:19.048Z,18.30
2023-04-25T13:23:47.748Z,18.20
2023-04-25T13:26:14.729Z,18.00
2023-04-25T13:28:43.593Z,18.10
2023-04-25T13:31:11.663Z,18.20
2023-04-25T13:33:38.394Z,18.20
2023-04-25T13:36:05.255Z,18.20
2023-04-25T13:38:32.092Z,18.20
2023-04-25T13:40:59.099Z,18.40
2023-04-25T13:43:26.101Z,18.40
2023-04-25T13:45:53.057Z,18.40
2023-04-25T13:48:21.368Z,18.30
2023-04-25T13:51:22.817Z,18.30
2023-04-25T13:53:50.046Z,18.40
2023-04-25T13:56:16.929Z,18.40
2023-04-25T13:58:43.573Z,18.50
2023-04-25T14:01:10.256Z,18.50
2023-04-25T14:03:37.057Z,18.50
2023-04-25T14:06:03.988Z,18.40
2023-04-25T14:08:30.761Z,18.30
2023-04-25T14:10:57.360Z,18.30
2023-04-25T14:13:24.515Z,18.10
2023-04-25T14:15:51.973Z,18.30
2023-04-25T14:18:19.209Z,18.50
2023-04-25T14:20:46.482Z,18.50
2023-04-25T14:23:13.171Z,18.60
2023-04-25T14:25:39.867Z,18.60
2023-04-25T14:28:07.371Z,18.60
2023-04-25T14:30:34.275Z,18.60
2023-04-25T14:33:01.277Z,18.70
2023-04-25T14:35:28.031Z,18.70
2023-04-25T14:37:55.330Z,18.70
2023-04-25T14:40:24.055Z,18.70
2023-04-25T14:42:52.205Z,18.80
2023-04-25T14:45:19.220Z,18.90
2023-04-25T14:47:46.231Z,18.90
2023-04-25T14:50:13.423Z,18.90
2023-04-25T14:52:40.087Z,19.00
2023-04-25T14:55:07.034Z,18.90
2023-04-25T14:57:34.389Z,19.00
2023-04-25T15:00:02.066Z,19.00
2023-04-25T15:02:29.703Z,18.90
2023-04-25T15:04:57.175Z,18.40
2023-04-25T15:07:24.137Z,18.40
2023-04-25T15:09:51.040Z,18.40
2023-04-25T15:12:17.694Z,18.70
2023-04-25T15:14:44.422Z,18.80
2023-04-25T15:17:11.764Z,18.80
2023-04-25T15:19:40.721Z,18.70
2023-04-25T15:22:08.059Z,18.70
2023-04-25T15:24:35.347Z,18.70
2023-04-25T15:27:04.540Z,18.70
2023-04-25T15:29:32.062Z,18.60
2023-04-25T15:31:59.938Z,18.60
2023-04-25T15:34:26.877Z,18.60
2023-04-25T15:36:53.938Z,18.70
2023-04-25T15:39:20.821Z,18.70
2023-04-25T15:41:48.526Z,18.60
2023-04-25T15:44:15.411Z,18.60
2023-04-25T15:46:42.248Z,18.60
2023-04-25T15:49:08.980Z,18.50
2023-04-25T15:51:35.918Z,18.50
2023-04-25T15:54:02.770Z,18.40
2023-04-25T15:56:29.768Z,18.40
2023-04-25T15:58:56.450Z,18.40
2023-04-25T16:01:24.764Z,18.40
2023-04-25T16:03:53.382Z,18.30
2023-04-25T16:06:20.350Z,18.40
2023-04-25T16:08:47.052Z,18.40
2023-04-25T16:11:14.857Z,18.40
2023-04-25T16:13:42.027Z,18.40
2023-04-25T16:16:08.930Z,18.40
2023-04-25T16:18:36.173Z,18.30
2023-04-25T16:21:03.818Z,18.30
2023-04-25T16:23:31.406Z,18.30
2023-04-25T16:25:58.125Z,18.30
2023-04-25T16:28:25.107Z,18.30
2023-04-25T16:30:51.765Z,18.20
2023-04-25T16:33:18.498Z,18.20
2023-04-25T16:35:45.301Z,18.20
2023-04-25T16:38:12.121Z,18.20
2023-04-25T16:40:39.016Z,18.10
2023-04-25T16:43:05.725Z,18.10
2023-04-25T16:45:32.450Z,18.00
2023-04-25T16:47:59.083Z,18.00
2023-04-25T16:50:27.329Z,17.90
2023-04-25T16:52:54.715Z,17.90
2023-04-25T16:55:21.655Z,17.80
2023-04-25T16:57:48.481Z,17.80
2023-04-25T17:00:15.943Z,17.70
2023-04-25T17:02:42.841Z,17.60
2023-04-25T17:05:10.563Z,17.60
2023-04-25T17:07:37.537Z,17.50
2023-04-25T17:10:04.771Z,17.50
2023-04-25T17:12:31.809Z,17.40
2023-04-25T17:15:00.270Z,17.40
2023-04-25T17:17:27.322Z,17.20
2023-04-25T17:19:54.064Z,17.20
2023-04-25T17:22:21.591Z,17.20
2023-04-25T17:24:48.324Z,17.10
2023-04-25T17:27:15.163Z,17.10
2023-04-25T17:29:41.894Z,17.00
2023-04-25T17:32:08.888Z,17.00
2023-04-25T17:34:37.878Z,16.90
2023-04-25T17:37:04.591Z,16.90
2023-04-25T17:39:31.282Z,16.80
2023-04-25T17:42:00.270Z,16.80
2023-04-25T17:44:27.648Z,16.70
2023-04-25T17:46:54.374Z,16.70
2023-04-25T17:49:21.010Z,16.60
2023-04-25T17:51:47.703Z,16.60
2023-04-25T17:54:14.727Z,16.50
2023-04-25T17:56:42.872Z,16.40
2023-04-25T17:59:09.869Z,16.40
2023-04-25T18:01:36.612Z,16.30
2023-04-25T18:04:04.350Z,16.30
2023-04-25T18:06:32.960Z,16.20
2023-04-25T18:08:59.707Z,16.20
2023-04-25T18:11:26.403Z,16.10
2023-04-25T18:13:53.208Z,16.10
2023-04-25T18:16:20.207Z,16.00
2023-04-25T18:18:53.276Z,16.00
2023-04-25T18:21:23.316Z,15.90
2023-04-25T18:23:50.057Z,15.90
2023-04-25T18:26:16.788Z,15.80
2023-04-25T18:28:44.144Z,15.80
2023-04-25T18:31:11.912Z,15.70
2023-04-25T18:33:38.735Z,15.70
2023-04-25T18:36:05.919Z,15.60
2023-04-25T18:38:35.863Z,15.60
2023-04-25T18:41:23.998Z,15.50
2023-04-25T18:43:51.782Z,15.50
2023-04-25T18:46:22.544Z,15.40
2023-04-25T18:48:50.580Z,15.40
2023-04-25T18:51:17.483Z,15.30
2023-04-25T18:53:44.315Z,15.30
2023-04-25T18:56:11.126Z,15.20
2023-04-25T18:58:37.775Z,15.20
2023-04-25T19:01:05.296Z,15.10
2023-04-25T19:03:33.501Z,15.10
2023-04-25T19:06:00.600Z,15.00
2023-04-25T19:08:27.622Z,15.00
2023-04-25T19:10:54.736Z,14.90
2023-04-25T19:13:21.930Z,14.90
2023-04-25T19:15:48.878Z,14.80
2023-04-25T19:18:15.787Z,14.80
2023-04-25T19:20:42.822Z,14.70
2023-04-25T19:23:10.523Z,14.60
2023-04-25T19:25:37.196Z,14.60
2023-04-25T19:28:04.144Z,14.50
2023-04-25T19:30:31.726Z,14.50
2023-04-25T19:32:58.573Z,14.40
2023-04-25T19:35:30.726Z,14.40
2023-04-25T19:37:57.800Z,14.30
2023-04-25T19:40:25.964Z,14.30
2023-04-25T19:42:52.674Z,14.20
2023-04-25T19:45:19.453Z,14.10
2023-04-25T19:47:46.148Z,14.10
2023-04-25T19:50:13.170Z,14.10
2023-04-25T19:52:39.926Z,14.00
2023-04-25T19:55:07.209Z,14.00
2023-04-25T19:57:39.054Z,13.90
2023-04-25T20:00:13.200Z,13.90
2023-04-25T20:02:40.939Z,13.80
2023-04-25T20:05:09.171Z,13.80
2023-04-25T20:07:35.980Z,13.70
2023-04-25T20:10:04.011Z,13.70
2023-04-25T20:12:30.681Z,13.60
2023-04-25T20:14:58.672Z,13.60
2023-04-25T20:17:26.151Z,13.50
2023-04-25T20:19:52.999Z,13.50
2023-04-25T20:22:19.686Z,13.50
2023-04-25T20:24:46.640Z,13.40
2023-04-25T20:27:13.328Z,13.40
2023-04-25T20:29:40.123Z,13.30
2023-04-25T20:32:07.371Z,13.30
2023-04-25T20:34:34.228Z,13.20
2023-04-25T20:37:02.892Z,13.20
2023-04-25T20:39:30.051Z,13.10
2023-04-25T20:41:57.192Z,13.10
2023-04-25T20:44:25.394Z,13.10
2023-04-25T20:46:52.191Z,13.00
2023-04-25T20:49:19.266Z,13.00
2023-04-25T20:51:46.503Z,12.90
2023-04-25T20:54:13.602Z,12.90
2023-04-25T20:56:40.437Z,12.80
2023-04-25T20:59:07.387Z,12.80
2023-04-25T21:01:34.912Z,12.80
2023-04-25T21:04:01.949Z,12.70
2023-04-25T21:06:29.910Z,12.70
2023-04-25T21:08:56.596Z,12.70
2023-04-25T21:11:23.694Z,12.60
2023-04-25T21:13:50.943Z,12.60
2023-04-25T21:16:17.694Z,12.50
2023-04-25T21:18:44.593Z,12.50
2023-04-25T21:21:11.460Z,12.50
2023-04-25T21:23:38.150Z,12.40
2023-04-25T21:26:05.010Z,12.40
2023-04-25T21:28:32.293Z,12.30
2023-04-25T21:30:59.406Z,12.30
2023-04-25T21:33:26.256Z,12.30
2023-04-25T21:35:52.929Z,12.20
2023-04-25T21:38:19.516Z,12.20
2023-04-25T21:40:46.192Z,12.20
2023-04-25T21:43:13.201Z,12.10
2023-04-25T21:45:56.934Z,12.10
2023-04-25T21:48:26.821Z,12.00
2023-04-25T21:50:53.578Z,12.00
2023-04-25T21:53:20.232Z,12.00
2023-04-25T21:55:46.945Z,12.00
2023-04-25T21:58:13.714Z,11.90
2023-04-25T22:00:43.023Z,11.90
2023-04-25T22:03:09.905Z,11.80
2023-04-25T22:05:37.613Z,11.80
2023-04-25T22:08:04.644Z,11.80
2023-04-25T22:10:31.500Z,11.70
2023-04-25T22:12:58.648Z,11.70
2023-04-25T22:15:25.619Z,11.60
2023-04-25T22:17:55.258Z,11.60
2023-04-25T22:20:26.346Z,11.60
2023-04-25T22:22:54.757Z,11.60
2023-04-25T22:25:22.116Z,11.50
2023-04-25T22:27:49.450Z,11.50
2023-04-25T22:30:16.254Z,11.50
2023-04-25T22:32:43.562Z,11.40
2023-04-25T22:35:10.834Z,11.40
2023-04-25T22:37:37.804Z,11.40
2023-04-25T22:40:09.282Z,11.30
2023-04-25T22:42:40.576Z,11.30
2023-04-25T22:45:08.383Z,11.30
2023-04-25T22:47:39.018Z,11.20
2023-04-25T22:50:12.709Z,11.20
2023-04-25T22:52:39.613Z,11.20
2023-04-25T22:55:06.851Z,11.10
2023-04-25T22:57:33.652Z,11.10
2023-04-25T23:00:00.282Z,11.00
2023-04-25T23:02:27.537Z,11.00
2023-04-25T23:04:55.088Z,11.00
2023-04-25T23:07:21.801Z,11.00
2023-04-25T23:09:48.407Z,10.90
2023-04-25T23:12:18.848Z,10.90
2023-04-25T23:14:49.700Z,10.90
2023-04-25T23:17:16.461Z,10.80
2023-04-25T23:19:43.282Z,10.80
2023-04-25T23:22:10.253Z,10.80
2023-04-25T23:24:40.645Z,10.70
2023-04-25T23:27:07.840Z,10.70
2023-04-25T23:29:35.063Z,10.70
2023-04-25T23:32:02.230Z,10.60
2023-04-25T23:34:32.687Z,10.60
2023-04-25T23:37:01.386Z,10.60
2023-04-25T23:39:28.425Z,10.60
2023-04-25T23:41:55.274Z,10.50
2023-04-25T23:44:22.617Z,10.50
2023-04-25T23:46:50.180Z,10.50
2023-04-25T23:49:16.931Z,10.50
2023-04-25T23:51:43.819Z,10.40
2023-04-25T23:54:10.450Z,10.40
2023-04-25T23:56:37.100Z,10.40
2023-04-25T23:59:04.215Z,10.40
